sensor_id;sensor_type;location;lat;lon;timestamp;noise_LAeq;noise_LA_min;noise_LA_max;noise_LA01;noise_LA95
68599;Laerm;18038;50.166;18.908;2022-12-26T00:01:03;49.17;46.82;61.53;;
68599;Laerm;18038;50.166;18.908;2022-12-26T00:04:10;48.85;46.86;60.36;;
68599;Laerm;18038;50.166;18.908;2022-12-26T00:07:37;48.00;46.84;50.43;;
68599;Laerm;18038;50.166;18.908;2022-12-26T00:10:43;47.99;46.36;53.24;;
68599;Laerm;18038;50.166;18.908;2022-12-26T00:13:54;48.64;46.70;55.91;;
68599;Laerm;18038;50.166;18.908;2022-12-26T00:17:03;48.03;46.61;57.39;;
68599;Laerm;18038;50.166;18.908;2022-12-26T00:20:10;48.83;46.76;62.34;;
68599;Laerm;18038;50.166;18.908;2022-12-26T00:23:16;48.00;46.69;53.21;;
68599;Laerm;18038;50.166;18.908;2022-12-26T00:26:27;48.31;46.83;55.90;;
68599;Laerm;18038;50.166;18.908;2022-12-26T00:29:33;47.83;46.59;58.12;;
68599;Laerm;18038;50.166;18.908;2022-12-26T00:32:43;48.28;46.48;57.49;;
68599;Laerm;18038;50.166;18.908;2022-12-26T00:35:49;48.02;46.64;55.91;;
68599;Laerm;18038;50.166;18.908;2022-12-26T00:38:59;48.02;46.57;59.30;;
68599;Laerm;18038;50.166;18.908;2022-12-26T00:42:05;47.84;46.55;59.43;;
68599;Laerm;18038;50.166;18.908;2022-12-26T00:45:12;47.91;46.57;60.49;;
68599;Laerm;18038;50.166;18.908;2022-12-26T00:48:21;48.15;46.62;54.01;;
68599;Laerm;18038;50.166;18.908;2022-12-26T00:51:29;47.99;46.78;59.25;;
68599;Laerm;18038;50.166;18.908;2022-12-26T00:54:35;47.95;46.69;59.09;;
68599;Laerm;18038;50.166;18.908;2022-12-26T00:57:42;48.27;46.66;59.29;;
68599;Laerm;18038;50.166;18.908;2022-12-26T01:00:49;48.04;46.72;52.42;;
68599;Laerm;18038;50.166;18.908;2022-12-26T01:03:59;48.15;46.71;54.45;;
68599;Laerm;18038;50.166;18.908;2022-12-26T01:07:06;48.26;46.69;58.17;;
68599;Laerm;18038;50.166;18.908;2022-12-26T01:10:13;47.86;46.72;48.96;;
68599;Laerm;18038;50.166;18.908;2022-12-26T01:13:20;47.84;46.62;48.97;;
68599;Laerm;18038;50.166;18.908;2022-12-26T01:16:26;47.82;46.56;48.96;;
68599;Laerm;18038;50.166;18.908;2022-12-26T01:19:36;48.15;46.71;56.84;;
68599;Laerm;18038;50.166;18.908;2022-12-26T01:22:43;47.89;46.77;49.05;;
68599;Laerm;18038;50.166;18.908;2022-12-26T01:25:49;47.85;46.69;49.10;;
68599;Laerm;18038;50.166;18.908;2022-12-26T01:29:16;47.86;46.82;49.28;;
68599;Laerm;18038;50.166;18.908;2022-12-26T01:32:22;48.80;46.68;61.78;;
68599;Laerm;18038;50.166;18.908;2022-12-26T01:35:32;48.69;46.76;60.15;;
68599;Laerm;18038;50.166;18.908;2022-12-26T01:38:38;47.88;46.75;50.65;;
68599;Laerm;18038;50.166;18.908;2022-12-26T01:41:46;47.86;46.52;48.88;;
68599;Laerm;18038;50.166;18.908;2022-12-26T01:45:03;47.95;46.65;59.39;;
68599;Laerm;18038;50.166;18.908;2022-12-26T01:48:21;47.87;46.79;48.98;;
68599;Laerm;18038;50.166;18.908;2022-12-26T01:51:35;48.11;46.72;54.09;;
68599;Laerm;18038;50.166;18.908;2022-12-26T01:54:49;47.95;46.71;50.42;;
68599;Laerm;18038;50.166;18.908;2022-12-26T01:58:05;48.02;46.90;50.36;;
68599;Laerm;18038;50.166;18.908;2022-12-26T02:01:13;48.10;46.83;52.70;;
68599;Laerm;18038;50.166;18.908;2022-12-26T02:04:27;48.28;46.76;57.43;;
68599;Laerm;18038;50.166;18.908;2022-12-26T02:07:51;47.92;46.77;48.95;;
68599;Laerm;18038;50.166;18.908;2022-12-26T02:11:07;48.31;46.79;57.77;;
68599;Laerm;18038;50.166;18.908;2022-12-26T02:14:16;47.90;46.58;51.47;;
68599;Laerm;18038;50.166;18.908;2022-12-26T02:17:24;48.14;46.70;60.00;;
68599;Laerm;18038;50.166;18.908;2022-12-26T02:20:46;49.95;46.80;63.37;;
68599;Laerm;18038;50.166;18.908;2022-12-26T02:28:46;49.28;46.65;68.68;;
68599;Laerm;18038;50.166;18.908;2022-12-26T02:32:12;48.48;46.76;55.14;;
68599;Laerm;18038;50.166;18.908;2022-12-26T02:35:41;48.19;46.58;56.32;;
68599;Laerm;18038;50.166;18.908;2022-12-26T02:39:11;47.85;46.57;49.09;;
68599;Laerm;18038;50.166;18.908;2022-12-26T02:42:55;47.82;46.63;48.85;;
68599;Laerm;18038;50.166;18.908;2022-12-26T02:46:17;47.97;46.66;53.01;;
68599;Laerm;18038;50.166;18.908;2022-12-26T02:50:00;48.07;46.49;54.43;;
68599;Laerm;18038;50.166;18.908;2022-12-26T02:53:36;47.72;46.31;48.77;;
68599;Laerm;18038;50.166;18.908;2022-12-26T02:57:04;48.27;46.58;54.57;;
68599;Laerm;18038;50.166;18.908;2022-12-26T03:00:25;48.36;46.60;60.60;;
68599;Laerm;18038;50.166;18.908;2022-12-26T03:03:55;47.83;46.60;50.66;;
68599;Laerm;18038;50.166;18.908;2022-12-26T03:07:25;47.99;46.68;53.71;;
68599;Laerm;18038;50.166;18.908;2022-12-26T03:10:50;47.80;46.55;48.96;;
68599;Laerm;18038;50.166;18.908;2022-12-26T03:14:19;47.77;46.61;48.84;;
68599;Laerm;18038;50.166;18.908;2022-12-26T03:17:34;47.80;46.62;49.02;;
68599;Laerm;18038;50.166;18.908;2022-12-26T03:20:39;47.97;46.67;49.13;;
68599;Laerm;18038;50.166;18.908;2022-12-26T03:23:52;48.23;46.95;51.40;;
68599;Laerm;18038;50.166;18.908;2022-12-26T03:27:00;48.11;46.80;51.77;;
68599;Laerm;18038;50.166;18.908;2022-12-26T03:30:06;47.77;46.30;50.12;;
68599;Laerm;18038;50.166;18.908;2022-12-26T03:33:30;47.84;46.73;49.28;;
68599;Laerm;18038;50.166;18.908;2022-12-26T03:41:08;48.27;46.72;57.85;;
68599;Laerm;18038;50.166;18.908;2022-12-26T03:44:43;48.25;46.53;56.25;;
68599;Laerm;18038;50.166;18.908;2022-12-26T03:48:18;47.86;46.41;51.42;;
68599;Laerm;18038;50.166;18.908;2022-12-26T03:51:49;48.07;46.92;49.21;;
68599;Laerm;18038;50.166;18.908;2022-12-26T03:55:18;50.11;46.95;69.58;;
68599;Laerm;18038;50.166;18.908;2022-12-26T03:58:53;48.14;46.99;51.81;;
68599;Laerm;18038;50.166;18.908;2022-12-26T04:02:18;49.55;46.95;62.02;;
68599;Laerm;18038;50.166;18.908;2022-12-26T04:05:44;48.21;46.89;53.94;;
68599;Laerm;18038;50.166;18.908;2022-12-26T04:09:12;49.46;46.90;73.90;;
68599;Laerm;18038;50.166;18.908;2022-12-26T04:12:36;49.41;47.00;64.99;;
68599;Laerm;18038;50.166;18.908;2022-12-26T04:16:11;49.61;46.69;69.83;;
68599;Laerm;18038;50.166;18.908;2022-12-26T04:19:53;48.06;46.45;61.54;;
68599;Laerm;18038;50.166;18.908;2022-12-26T04:23:10;50.76;46.46;65.80;;
68599;Laerm;18038;50.166;18.908;2022-12-26T04:26:41;47.89;46.53;53.88;;
68599;Laerm;18038;50.166;18.908;2022-12-26T04:30:04;47.89;46.80;55.15;;
68599;Laerm;18038;50.166;18.908;2022-12-26T04:33:41;48.53;46.76;59.50;;
68599;Laerm;18038;50.166;18.908;2022-12-26T04:37:12;48.18;46.82;59.63;;
68599;Laerm;18038;50.166;18.908;2022-12-26T04:40:44;48.88;46.87;61.98;;
68599;Laerm;18038;50.166;18.908;2022-12-26T04:44:07;53.71;46.94;63.71;;
68599;Laerm;18038;50.166;18.908;2022-12-26T04:47:15;53.04;47.25;71.62;;
68599;Laerm;18038;50.166;18.908;2022-12-26T04:50:24;50.84;47.30;66.82;;
68599;Laerm;18038;50.166;18.908;2022-12-26T04:53:28;49.88;46.89;72.46;;
68599;Laerm;18038;50.166;18.908;2022-12-26T04:56:34;50.15;47.14;68.16;;
68599;Laerm;18038;50.166;18.908;2022-12-26T04:59:41;52.62;47.12;80.08;;
68599;Laerm;18038;50.166;18.908;2022-12-26T05:02:47;50.01;46.79;65.58;;
68599;Laerm;18038;50.166;18.908;2022-12-26T05:06:10;52.30;47.00;72.46;;
68599;Laerm;18038;50.166;18.908;2022-12-26T05:09:29;48.77;47.06;64.97;;
68599;Laerm;18038;50.166;18.908;2022-12-26T05:12:42;49.68;46.83;63.42;;
68599;Laerm;18038;50.166;18.908;2022-12-26T05:15:48;48.20;46.66;62.23;;
68599;Laerm;18038;50.166;18.908;2022-12-26T05:19:11;53.43;46.86;77.60;;
68599;Laerm;18038;50.166;18.908;2022-12-26T05:22:37;48.25;46.85;57.51;;
68599;Laerm;18038;50.166;18.908;2022-12-26T05:25:58;49.13;46.65;61.64;;
68599;Laerm;18038;50.166;18.908;2022-12-26T05:29:16;49.62;46.92;66.90;;
68599;Laerm;18038;50.166;18.908;2022-12-26T05:32:23;53.56;47.07;76.90;;
68599;Laerm;18038;50.166;18.908;2022-12-26T05:35:42;49.68;46.89;67.15;;
68599;Laerm;18038;50.166;18.908;2022-12-26T05:38:51;50.88;47.01;71.14;;
68599;Laerm;18038;50.166;18.908;2022-12-26T05:41:58;52.47;46.92;69.79;;
68599;Laerm;18038;50.166;18.908;2022-12-26T05:45:06;51.79;47.10;68.89;;
68599;Laerm;18038;50.166;18.908;2022-12-26T05:48:12;56.00;46.99;75.78;;
68599;Laerm;18038;50.166;18.908;2022-12-26T05:51:20;51.40;47.19;66.41;;
68599;Laerm;18038;50.166;18.908;2022-12-26T05:54:28;52.99;47.23;70.05;;
68599;Laerm;18038;50.166;18.908;2022-12-26T05:57:35;54.68;47.14;74.93;;
68599;Laerm;18038;50.166;18.908;2022-12-26T06:00:41;55.12;47.13;73.21;;
68599;Laerm;18038;50.166;18.908;2022-12-26T06:03:51;55.09;47.38;75.66;;
68599;Laerm;18038;50.166;18.908;2022-12-26T06:06:57;55.42;47.21;74.68;;
68599;Laerm;18038;50.166;18.908;2022-12-26T06:10:09;55.68;47.14;74.59;;
68599;Laerm;18038;50.166;18.908;2022-12-26T06:13:15;56.44;48.64;77.53;;
68599;Laerm;18038;50.166;18.908;2022-12-26T06:16:22;58.88;47.43;83.87;;
68599;Laerm;18038;50.166;18.908;2022-12-26T06:19:28;54.97;46.92;72.90;;
68599;Laerm;18038;50.166;18.908;2022-12-26T06:22:36;61.28;47.19;86.03;;
68599;Laerm;18038;50.166;18.908;2022-12-26T06:25:52;55.70;47.34;74.43;;
68599;Laerm;18038;50.166;18.908;2022-12-26T06:28:59;49.51;46.94;64.34;;
68599;Laerm;18038;50.166;18.908;2022-12-26T06:32:05;48.92;46.99;61.78;;
68599;Laerm;18038;50.166;18.908;2022-12-26T06:35:12;53.20;47.13;78.41;;
68599;Laerm;18038;50.166;18.908;2022-12-26T06:38:18;52.16;47.32;69.11;;
68599;Laerm;18038;50.166;18.908;2022-12-26T06:41:27;60.85;47.31;83.07;;
68599;Laerm;18038;50.166;18.908;2022-12-26T06:44:34;56.23;47.12;78.63;;
68599;Laerm;18038;50.166;18.908;2022-12-26T06:47:40;54.44;47.45;71.99;;
68599;Laerm;18038;50.166;18.908;2022-12-26T06:50:46;52.60;47.21;70.24;;
68599;Laerm;18038;50.166;18.908;2022-12-26T06:53:54;55.41;47.49;74.00;;
68599;Laerm;18038;50.166;18.908;2022-12-26T06:57:03;57.82;47.28;86.30;;
68599;Laerm;18038;50.166;18.908;2022-12-26T07:00:13;58.19;47.61;79.14;;
68599;Laerm;18038;50.166;18.908;2022-12-26T07:03:20;60.42;47.78;83.02;;
68599;Laerm;18038;50.166;18.908;2022-12-26T07:06:31;59.18;47.48;83.15;;
68599;Laerm;18038;50.166;18.908;2022-12-26T07:09:38;58.34;47.65;79.58;;
68599;Laerm;18038;50.166;18.908;2022-12-26T07:12:48;59.40;47.40;80.16;;
68599;Laerm;18038;50.166;18.908;2022-12-26T07:15:57;55.91;47.12;75.62;;
68599;Laerm;18038;50.166;18.908;2022-12-26T07:19:06;55.45;47.35;74.69;;
68599;Laerm;18038;50.166;18.908;2022-12-26T07:22:12;57.35;47.49;84.85;;
68599;Laerm;18038;50.166;18.908;2022-12-26T07:25:19;63.53;47.37;84.23;;
68599;Laerm;18038;50.166;18.908;2022-12-26T07:28:28;56.59;47.63;74.32;;
68599;Laerm;18038;50.166;18.908;2022-12-26T07:31:35;51.52;47.61;66.95;;
68599;Laerm;18038;50.166;18.908;2022-12-26T07:34:42;57.34;47.67;79.10;;
68599;Laerm;18038;50.166;18.908;2022-12-26T07:37:49;55.80;47.72;73.26;;
68599;Laerm;18038;50.166;18.908;2022-12-26T07:40:56;58.31;48.06;78.77;;
68599;Laerm;18038;50.166;18.908;2022-12-26T07:44:28;58.27;49.79;76.27;;
68599;Laerm;18038;50.166;18.908;2022-12-26T07:47:35;53.25;47.52;67.75;;
68599;Laerm;18038;50.166;18.908;2022-12-26T07:50:42;57.15;47.91;74.03;;
68599;Laerm;18038;50.166;18.908;2022-12-26T07:53:51;53.24;47.69;72.33;;
68599;Laerm;18038;50.166;18.908;2022-12-26T07:56:58;58.66;47.86;78.79;;
68599;Laerm;18038;50.166;18.908;2022-12-26T08:00:26;55.17;47.98;79.76;;
68599;Laerm;18038;50.166;18.908;2022-12-26T08:03:34;59.33;48.41;79.74;;
68599;Laerm;18038;50.166;18.908;2022-12-26T08:06:40;55.09;47.94;76.46;;
68599;Laerm;18038;50.166;18.908;2022-12-26T08:09:47;53.38;47.70;69.84;;
68599;Laerm;18038;50.166;18.908;2022-12-26T08:12:53;58.51;48.32;79.85;;
68599;Laerm;18038;50.166;18.908;2022-12-26T08:16:09;57.67;48.09;78.87;;
68599;Laerm;18038;50.166;18.908;2022-12-26T08:19:15;51.35;47.54;62.99;;
68599;Laerm;18038;50.166;18.908;2022-12-26T08:22:22;58.19;47.22;78.85;;
68599;Laerm;18038;50.166;18.908;2022-12-26T08:25:29;58.01;47.75;78.52;;
68599;Laerm;18038;50.166;18.908;2022-12-26T08:28:36;57.60;47.95;77.17;;
68599;Laerm;18038;50.166;18.908;2022-12-26T08:31:45;56.85;47.67;75.26;;
68599;Laerm;18038;50.166;18.908;2022-12-26T08:34:52;58.41;48.70;78.76;;
68599;Laerm;18038;50.166;18.908;2022-12-26T08:38:01;58.32;47.63;79.66;;
68599;Laerm;18038;50.166;18.908;2022-12-26T08:41:08;50.51;47.48;67.77;;
68599;Laerm;18038;50.166;18.908;2022-12-26T08:44:14;51.09;47.23;67.99;;
68599;Laerm;18038;50.166;18.908;2022-12-26T08:47:33;50.55;47.39;65.95;;
68599;Laerm;18038;50.166;18.908;2022-12-26T08:50:40;56.88;47.70;84.17;;
68599;Laerm;18038;50.166;18.908;2022-12-26T08:53:48;52.94;48.01;66.28;;
68599;Laerm;18038;50.166;18.908;2022-12-26T08:56:55;56.71;48.86;74.62;;
68599;Laerm;18038;50.166;18.908;2022-12-26T09:00:07;53.44;48.26;72.73;;
68599;Laerm;18038;50.166;18.908;2022-12-26T09:03:16;54.11;48.49;69.31;;
68599;Laerm;18038;50.166;18.908;2022-12-26T09:06:24;51.29;48.05;63.65;;
68599;Laerm;18038;50.166;18.908;2022-12-26T09:09:31;53.35;48.35;67.16;;
68599;Laerm;18038;50.166;18.908;2022-12-26T09:12:38;55.17;48.25;68.99;;
68599;Laerm;18038;50.166;18.908;2022-12-26T09:15:45;54.59;48.31;66.54;;
68599;Laerm;18038;50.166;18.908;2022-12-26T09:18:58;52.37;47.47;71.94;;
68599;Laerm;18038;50.166;18.908;2022-12-26T09:22:05;52.46;47.76;66.89;;
68599;Laerm;18038;50.166;18.908;2022-12-26T09:25:25;54.17;47.74;71.43;;
68599;Laerm;18038;50.166;18.908;2022-12-26T09:28:32;54.61;47.57;75.27;;
68599;Laerm;18038;50.166;18.908;2022-12-26T09:31:40;53.97;48.02;72.23;;
68599;Laerm;18038;50.166;18.908;2022-12-26T09:34:51;54.39;48.09;73.00;;
68599;Laerm;18038;50.166;18.908;2022-12-26T09:38:01;52.50;47.68;69.86;;
68599;Laerm;18038;50.166;18.908;2022-12-26T09:41:43;53.30;48.18;73.03;;
68599;Laerm;18038;50.166;18.908;2022-12-26T09:45:05;52.53;48.27;68.90;;
68599;Laerm;18038;50.166;18.908;2022-12-26T09:48:23;52.71;48.15;69.81;;
68599;Laerm;18038;50.166;18.908;2022-12-26T09:51:40;53.44;48.24;71.52;;
68599;Laerm;18038;50.166;18.908;2022-12-26T09:54:53;54.28;49.03;66.01;;
68599;Laerm;18038;50.166;18.908;2022-12-26T09:58:14;55.08;49.18;71.90;;
68599;Laerm;18038;50.166;18.908;2022-12-26T10:01:30;59.09;50.06;77.89;;
68599;Laerm;18038;50.166;18.908;2022-12-26T10:04:40;57.70;49.10;78.87;;
68599;Laerm;18038;50.166;18.908;2022-12-26T10:07:56;53.13;47.91;70.18;;
68599;Laerm;18038;50.166;18.908;2022-12-26T10:11:15;54.81;47.46;75.56;;
68599;Laerm;18038;50.166;18.908;2022-12-26T10:14:40;50.39;47.35;63.11;;
68599;Laerm;18038;50.166;18.908;2022-12-26T10:18:09;51.75;47.45;66.19;;
68599;Laerm;18038;50.166;18.908;2022-12-26T10:21:37;51.52;47.48;65.84;;
68599;Laerm;18038;50.166;18.908;2022-12-26T10:24:51;52.43;47.35;67.99;;
68599;Laerm;18038;50.166;18.908;2022-12-26T10:28:01;51.21;47.56;65.81;;
68599;Laerm;18038;50.166;18.908;2022-12-26T10:31:18;52.20;47.76;68.24;;
68599;Laerm;18038;50.166;18.908;2022-12-26T10:34:32;53.40;47.84;67.04;;
68599;Laerm;18038;50.166;18.908;2022-12-26T10:37:42;53.62;48.37;62.27;;
68599;Laerm;18038;50.166;18.908;2022-12-26T10:40:57;53.22;48.42;68.99;;
68599;Laerm;18038;50.166;18.908;2022-12-26T10:44:07;56.29;50.00;65.92;;
68599;Laerm;18038;50.166;18.908;2022-12-26T10:47:25;54.50;48.07;64.10;;
68599;Laerm;18038;50.166;18.908;2022-12-26T10:50:37;52.84;48.33;65.66;;
68599;Laerm;18038;50.166;18.908;2022-12-26T10:53:49;52.91;48.02;71.98;;
68599;Laerm;18038;50.166;18.908;2022-12-26T10:57:01;53.83;47.86;72.51;;
68599;Laerm;18038;50.166;18.908;2022-12-26T11:00:17;56.05;48.58;74.71;;
68599;Laerm;18038;50.166;18.908;2022-12-26T11:03:25;57.54;49.27;76.58;;
68599;Laerm;18038;50.166;18.908;2022-12-26T11:06:38;55.86;48.50;71.71;;
68599;Laerm;18038;50.166;18.908;2022-12-26T11:09:51;56.91;48.19;76.21;;
68599;Laerm;18038;50.166;18.908;2022-12-26T11:13:17;55.15;48.01;75.29;;
68599;Laerm;18038;50.166;18.908;2022-12-26T11:16:29;55.05;48.17;72.88;;
68599;Laerm;18038;50.166;18.908;2022-12-26T11:19:39;54.83;48.47;73.43;;
68599;Laerm;18038;50.166;18.908;2022-12-26T11:22:47;57.80;48.12;75.88;;
68599;Laerm;18038;50.166;18.908;2022-12-26T11:25:56;54.16;48.00;73.74;;
68599;Laerm;18038;50.166;18.908;2022-12-26T11:29:13;56.44;48.40;74.57;;
68599;Laerm;18038;50.166;18.908;2022-12-26T11:32:20;53.39;47.95;74.25;;
68599;Laerm;18038;50.166;18.908;2022-12-26T11:35:28;54.10;48.10;72.59;;
68599;Laerm;18038;50.166;18.908;2022-12-26T11:38:52;52.29;48.02;68.58;;
68599;Laerm;18038;50.166;18.908;2022-12-26T11:42:08;53.81;47.54;73.88;;
68599;Laerm;18038;50.166;18.908;2022-12-26T11:45:24;52.82;47.94;71.65;;
68599;Laerm;18038;50.166;18.908;2022-12-26T11:48:39;53.90;48.22;68.51;;
68599;Laerm;18038;50.166;18.908;2022-12-26T11:51:50;56.56;48.00;75.81;;
68599;Laerm;18038;50.166;18.908;2022-12-26T11:55:26;55.67;49.45;75.63;;
68599;Laerm;18038;50.166;18.908;2022-12-26T11:58:34;56.10;48.85;74.12;;
68599;Laerm;18038;50.166;18.908;2022-12-26T12:01:44;58.83;49.27;80.17;;
68599;Laerm;18038;50.166;18.908;2022-12-26T12:04:59;55.31;48.23;71.65;;
68599;Laerm;18038;50.166;18.908;2022-12-26T12:08:30;54.19;48.22;68.95;;
68599;Laerm;18038;50.166;18.908;2022-12-26T12:11:55;53.81;48.37;70.66;;
68599;Laerm;18038;50.166;18.908;2022-12-26T12:15:16;54.73;48.54;69.40;;
68599;Laerm;18038;50.166;18.908;2022-12-26T12:18:45;54.75;48.39;70.65;;
68599;Laerm;18038;50.166;18.908;2022-12-26T12:22:30;55.19;48.13;81.43;;
68599;Laerm;18038;50.166;18.908;2022-12-26T12:26:03;55.32;47.81;75.05;;
68599;Laerm;18038;50.166;18.908;2022-12-26T12:29:32;55.41;48.64;75.33;;
68599;Laerm;18038;50.166;18.908;2022-12-26T12:33:08;54.25;47.88;67.89;;
68599;Laerm;18038;50.166;18.908;2022-12-26T12:36:36;54.22;48.27;79.21;;
68599;Laerm;18038;50.166;18.908;2022-12-26T12:39:58;56.45;48.47;83.39;;
68599;Laerm;18038;50.166;18.908;2022-12-26T12:43:19;54.53;48.34;64.64;;
68599;Laerm;18038;50.166;18.908;2022-12-26T12:46:41;55.17;48.28;74.58;;
68599;Laerm;18038;50.166;18.908;2022-12-26T12:50:03;57.63;48.09;88.22;;
68599;Laerm;18038;50.166;18.908;2022-12-26T12:53:41;55.59;48.40;74.82;;
68599;Laerm;18038;50.166;18.908;2022-12-26T12:57:05;52.50;48.08;62.68;;
68599;Laerm;18038;50.166;18.908;2022-12-26T13:00:18;53.45;48.17;65.01;;
68599;Laerm;18038;50.166;18.908;2022-12-26T13:03:37;53.03;48.40;60.84;;
68599;Laerm;18038;50.166;18.908;2022-12-26T13:06:51;51.39;47.69;61.06;;
68599;Laerm;18038;50.166;18.908;2022-12-26T13:10:13;53.10;47.93;67.16;;
68599;Laerm;18038;50.166;18.908;2022-12-26T13:13:28;52.75;47.82;69.48;;
68599;Laerm;18038;50.166;18.908;2022-12-26T13:16:42;59.08;48.16;79.97;;
68599;Laerm;18038;50.166;18.908;2022-12-26T13:20:00;52.14;47.79;69.29;;
68599;Laerm;18038;50.166;18.908;2022-12-26T13:23:30;56.21;47.78;74.67;;
68599;Laerm;18038;50.166;18.908;2022-12-26T13:27:00;52.81;47.52;68.59;;
68599;Laerm;18038;50.166;18.908;2022-12-26T13:30:15;54.85;47.73;74.93;;
68599;Laerm;18038;50.166;18.908;2022-12-26T13:33:22;55.38;48.50;72.09;;
68599;Laerm;18038;50.166;18.908;2022-12-26T13:36:38;54.45;48.71;73.75;;
68599;Laerm;18038;50.166;18.908;2022-12-26T13:39:45;57.77;47.92;81.70;;
68599;Laerm;18038;50.166;18.908;2022-12-26T13:43:06;52.62;47.63;72.20;;
68599;Laerm;18038;50.166;18.908;2022-12-26T13:46:52;54.55;47.73;73.89;;
68599;Laerm;18038;50.166;18.908;2022-12-26T13:50:46;53.92;48.26;66.58;;
68599;Laerm;18038;50.166;18.908;2022-12-26T13:54:09;53.58;47.99;73.04;;
68599;Laerm;18038;50.166;18.908;2022-12-26T13:57:36;53.52;48.02;68.08;;
68599;Laerm;18038;50.166;18.908;2022-12-26T14:00:54;53.41;48.05;67.96;;
68599;Laerm;18038;50.166;18.908;2022-12-26T14:04:35;53.45;47.69;70.40;;
68599;Laerm;18038;50.166;18.908;2022-12-26T14:07:55;56.99;48.36;75.63;;
68599;Laerm;18038;50.166;18.908;2022-12-26T14:11:33;58.13;48.00;76.83;;
68599;Laerm;18038;50.166;18.908;2022-12-26T14:15:15;51.46;47.83;65.93;;
68599;Laerm;18038;50.166;18.908;2022-12-26T14:18:43;51.49;47.92;65.05;;
68599;Laerm;18038;50.166;18.908;2022-12-26T14:22:05;53.85;47.72;69.80;;
68599;Laerm;18038;50.166;18.908;2022-12-26T14:25:26;53.79;48.29;73.60;;
68599;Laerm;18038;50.166;18.908;2022-12-26T14:28:58;57.35;48.56;74.73;;
68599;Laerm;18038;50.166;18.908;2022-12-26T14:32:31;55.56;49.21;72.71;;
68599;Laerm;18038;50.166;18.908;2022-12-26T14:36:01;54.69;47.96;73.94;;
68599;Laerm;18038;50.166;18.908;2022-12-26T14:39:29;53.39;47.77;70.32;;
68599;Laerm;18038;50.166;18.908;2022-12-26T14:46:55;60.63;48.52;81.85;;
68599;Laerm;18038;50.166;18.908;2022-12-26T14:50:36;56.41;48.36;75.42;;
68599;Laerm;18038;50.166;18.908;2022-12-26T14:54:39;56.76;48.48;78.93;;
68599;Laerm;18038;50.166;18.908;2022-12-26T14:57:54;53.19;48.55;67.35;;
68599;Laerm;18038;50.166;18.908;2022-12-26T15:01:47;56.01;48.12;73.41;;
68599;Laerm;18038;50.166;18.908;2022-12-26T15:05:10;54.36;48.48;72.16;;
68599;Laerm;18038;50.166;18.908;2022-12-26T15:08:57;55.06;47.81;73.54;;
68599;Laerm;18038;50.166;18.908;2022-12-26T15:16:23;54.97;48.38;71.94;;
68599;Laerm;18038;50.166;18.908;2022-12-26T15:20:11;57.06;48.29;74.63;;
68599;Laerm;18038;50.166;18.908;2022-12-26T15:24:19;58.43;47.97;81.68;;
68599;Laerm;18038;50.166;18.908;2022-12-26T15:28:32;55.08;48.16;72.57;;
68599;Laerm;18038;50.166;18.908;2022-12-26T15:32:00;53.68;48.47;70.11;;
68599;Laerm;18038;50.166;18.908;2022-12-26T15:35:19;52.35;47.83;69.08;;
68599;Laerm;18038;50.166;18.908;2022-12-26T15:38:40;54.55;47.74;71.39;;
68599;Laerm;18038;50.166;18.908;2022-12-26T15:42:14;51.74;47.77;63.98;;
68599;Laerm;18038;50.166;18.908;2022-12-26T15:45:42;54.66;47.63;76.81;;
68599;Laerm;18038;50.166;18.908;2022-12-26T15:49:18;57.69;48.78;78.39;;
68599;Laerm;18038;50.166;18.908;2022-12-26T15:52:45;56.58;49.69;77.06;;
68599;Laerm;18038;50.166;18.908;2022-12-26T15:56:36;55.19;49.00;77.04;;
68599;Laerm;18038;50.166;18.908;2022-12-26T16:00:11;54.45;49.52;68.87;;
68599;Laerm;18038;50.166;18.908;2022-12-26T16:03:36;54.06;48.91;72.44;;
68599;Laerm;18038;50.166;18.908;2022-12-26T16:07:06;54.91;48.18;74.77;;
68599;Laerm;18038;50.166;18.908;2022-12-26T16:10:29;52.60;48.38;63.22;;
68599;Laerm;18038;50.166;18.908;2022-12-26T16:13:50;56.55;50.18;66.04;;
68599;Laerm;18038;50.166;18.908;2022-12-26T16:17:19;54.24;48.84;63.54;;
68599;Laerm;18038;50.166;18.908;2022-12-26T16:20:31;54.51;49.89;73.73;;
68599;Laerm;18038;50.166;18.908;2022-12-26T16:23:52;53.11;48.46;62.81;;
68599;Laerm;18038;50.166;18.908;2022-12-26T16:27:05;58.17;49.37;80.33;;
68599;Laerm;18038;50.166;18.908;2022-12-26T16:30:17;56.45;51.01;70.43;;
68599;Laerm;18038;50.166;18.908;2022-12-26T16:33:30;57.59;52.85;70.73;;
68599;Laerm;18038;50.166;18.908;2022-12-26T16:36:37;60.08;51.79;79.43;;
68599;Laerm;18038;50.166;18.908;2022-12-26T16:39:46;63.23;51.32;85.45;;
68599;Laerm;18038;50.166;18.908;2022-12-26T16:43:28;60.33;51.10;79.25;;
68599;Laerm;18038;50.166;18.908;2022-12-26T16:46:38;62.07;50.86;81.36;;
68599;Laerm;18038;50.166;18.908;2022-12-26T16:49:47;56.27;49.43;73.55;;
68599;Laerm;18038;50.166;18.908;2022-12-26T16:53:10;61.65;49.33;86.64;;
68599;Laerm;18038;50.166;18.908;2022-12-26T16:56:26;64.52;50.35;87.90;;
68599;Laerm;18038;50.166;18.908;2022-12-26T16:59:46;59.43;48.53;80.23;;
68599;Laerm;18038;50.166;18.908;2022-12-26T17:02:59;64.76;48.26;90.89;;
68599;Laerm;18038;50.166;18.908;2022-12-26T17:06:15;64.62;48.64;81.05;;
68599;Laerm;18038;50.166;18.908;2022-12-26T17:09:26;63.54;49.01;82.40;;
68599;Laerm;18038;50.166;18.908;2022-12-26T17:12:37;65.21;48.35;84.10;;
68599;Laerm;18038;50.166;18.908;2022-12-26T17:15:52;65.36;48.93;88.33;;
68599;Laerm;18038;50.166;18.908;2022-12-26T17:19:17;61.19;49.06;79.93;;
68599;Laerm;18038;50.166;18.908;2022-12-26T17:22:32;57.69;48.27;78.08;;
68599;Laerm;18038;50.166;18.908;2022-12-26T17:25:39;56.62;48.26;80.00;;
68599;Laerm;18038;50.166;18.908;2022-12-26T17:28:52;55.88;47.84;75.66;;
68599;Laerm;18038;50.166;18.908;2022-12-26T17:31:59;54.41;47.75;72.14;;
68599;Laerm;18038;50.166;18.908;2022-12-26T17:35:15;55.27;48.21;73.40;;
68599;Laerm;18038;50.166;18.908;2022-12-26T17:38:28;54.57;48.06;73.11;;
68599;Laerm;18038;50.166;18.908;2022-12-26T17:41:35;58.91;48.22;77.53;;
68599;Laerm;18038;50.166;18.908;2022-12-26T17:44:44;57.88;50.75;78.28;;
68599;Laerm;18038;50.166;18.908;2022-12-26T17:47:54;56.06;47.73;76.38;;
68599;Laerm;18038;50.166;18.908;2022-12-26T17:51:07;52.26;47.51;64.35;;
68599;Laerm;18038;50.166;18.908;2022-12-26T17:54:18;52.75;47.40;70.64;;
68599;Laerm;18038;50.166;18.908;2022-12-26T17:57:27;52.99;47.62;70.55;;
68599;Laerm;18038;50.166;18.908;2022-12-26T18:00:34;55.82;47.62;72.19;;
68599;Laerm;18038;50.166;18.908;2022-12-26T18:03:42;53.48;47.66;71.70;;
68599;Laerm;18038;50.166;18.908;2022-12-26T18:06:48;55.25;47.76;74.19;;
68599;Laerm;18038;50.166;18.908;2022-12-26T18:09:58;51.77;47.48;64.30;;
68599;Laerm;18038;50.166;18.908;2022-12-26T18:13:09;53.93;47.33;76.42;;
68599;Laerm;18038;50.166;18.908;2022-12-26T18:16:21;55.70;47.19;77.09;;
68599;Laerm;18038;50.166;18.908;2022-12-26T18:19:30;52.84;47.29;70.13;;
68599;Laerm;18038;50.166;18.908;2022-12-26T18:22:39;52.22;47.46;67.06;;